TimeMST,TemperatureF,Dew PointF,Humidity,Sea Level PressureIn,VisibilityMPH,Wind Direction,Wind SpeedMPH,Gust SpeedMPH,PrecipitationIn,Events,Conditions,WindDirDegrees,DateUTC
12:15 AM,50.0,12.2,22,30.09,10.0,NNW,10.4,-,N/A,,Clear,330,2013-01-22 07:15:00
12:55 AM,50.0,12.2,22,30.09,9.0,NNW,6.9,-,N/A,,Clear,330,2013-01-22 07:55:00
1:15 AM,48.2,14.0,25,30.09,9.0,North,6.9,-,N/A,,Clear,350,2013-01-22 08:15:00
1:35 AM,50.0,12.2,22,30.10,10.0,NNW,8.1,-,N/A,,Clear,340,2013-01-22 08:35:00
1:55 AM,53.6,12.2,19,30.10,10.0,NNW,6.9,-,N/A,,Clear,340,2013-01-22 08:55:00
2:15 AM,51.8,12.2,21,30.11,10.0,North,6.9,-,N/A,,Clear,350,2013-01-22 09:15:00
2:35 AM,50.0,10.4,20,30.11,10.0,North,9.2,-,N/A,,Clear,360,2013-01-22 09:35:00
2:55 AM,51.8,12.2,21,30.11,10.0,North,10.4,-,N/A,,Clear,350,2013-01-22 09:55:00
3:15 AM,50.0,12.2,22,30.11,10.0,North,9.2,-,N/A,,Clear,350,2013-01-22 10:15:00
3:35 AM,50.0,12.2,22,30.11,10.0,NNW,9.2,-,N/A,,Clear,340,2013-01-22 10:35:00
3:55 AM,48.2,12.2,24,30.11,10.0,NNW,8.1,-,N/A,,Clear,340,2013-01-22 10:55:00
4:15 AM,48.2,12.2,24,30.12,10.0,NNW,5.8,-,N/A,,Clear,340,2013-01-22 11:15:00
4:35 AM,48.2,12.2,24,30.11,10.0,NNW,8.1,-,N/A,,Clear,340,2013-01-22 11:35:00
4:55 AM,50.0,10.4,20,30.12,10.0,North,9.2,-,N/A,,Clear,350,2013-01-22 11:55:00
5:15 AM,48.2,12.2,24,30.12,10.0,North,9.2,-,N/A,,Clear,10,2013-01-22 12:15:00
5:55 AM,44.6,12.2,27,30.12,10.0,NNW,6.9,-,N/A,,Clear,340,2013-01-22 12:55:00
6:15 AM,46.4,12.2,25,30.12,9.0,NW,6.9,-,N/A,,Clear,320,2013-01-22 13:15:00
6:35 AM,44.6,12.2,27,30.13,10.0,NNW,3.5,-,N/A,,Clear,340,2013-01-22 13:35:00
6:55 AM,44.6,12.2,27,30.13,9.0,North,6.9,-,N/A,,Clear,350,2013-01-22 13:55:00
7:15 AM,41.0,14.0,33,30.13,8.0,NNW,8.1,-,N/A,,Clear,330,2013-01-22 14:15:00
7:35 AM,41.0,14.0,33,30.13,3.0,NNW,6.9,-,N/A,,Clear,340,2013-01-22 14:35:00
7:55 AM,42.8,14.0,31,30.14,4.0,Calm,Calm,-,N/A,,Clear,0,2013-01-22 14:55:00
8:15 AM,44.6,15.8,31,30.14,9.0,West,3.5,-,N/A,,Clear,260,2013-01-22 15:15:00
8:35 AM,48.2,17.6,30,30.15,9.0,Calm,Calm,-,N/A,,Clear,0,2013-01-22 15:35:00
8:55 AM,48.2,14.0,25,30.16,10.0,Calm,Calm,-,N/A,,Clear,0,2013-01-22 15:55:00
9:15 AM,51.8,14.0,22,30.17,10.0,NW,5.8,-,N/A,,Clear,310,2013-01-22 16:15:00
9:35 AM,55.4,14.0,20,30.17,7.0,NNW,5.8,-,N/A,,Clear,330,2013-01-22 16:35:00
9:55 AM,59.0,14.0,17,30.17,8.0,NNW,5.8,-,N/A,,Clear,330,2013-01-22 16:55:00
10:15 AM,62.6,12.2,14,30.18,10.0,North,5.8,-,N/A,,Clear,350,2013-01-22 17:15:00
10:35 AM,64.4,12.2,13,30.18,10.0,North,5.8,-,N/A,,Clear,10,2013-01-22 17:35:00
10:55 AM,64.4,12.2,13,30.17,10.0,Calm,Calm,-,N/A,,Clear,0,2013-01-22 17:55:00
11:15 AM,66.2,12.2,12,30.17,10.0,Calm,Calm,-,N/A,,Clear,0,2013-01-22 18:15:00
11:35 AM,68.0,12.2,12,30.16,10.0,Calm,Calm,-,N/A,,Clear,0,2013-01-22 18:35:00
11:55 AM,68.0,12.2,12,30.15,10.0,Calm,Calm,-,N/A,,Clear,0,2013-01-22 18:55:00
12:15 PM,71.6,10.4,9,30.14,10.0,Calm,Calm,-,N/A,,Clear,0,2013-01-22 19:15:00
12:35 PM,71.6,10.4,9,30.13,10.0,ESE,3.5,-,N/A,,Clear,110,2013-01-22 19:35:00
12:55 PM,73.4,14.0,10,30.12,10.0,East,8.1,-,N/A,,Clear,100,2013-01-22 19:55:00
1:15 PM,73.4,15.8,11,30.11,10.0,ESE,6.9,-,N/A,,Clear,110,2013-01-22 20:15:00
1:35 PM,73.4,14.0,10,30.10,10.0,East,3.5,-,N/A,,Clear,90,2013-01-22 20:35:00
1:55 PM,75.2,14.0,10,30.09,10.0,Calm,Calm,-,N/A,,Clear,0,2013-01-22 20:55:00
2:15 PM,75.2,12.2,9,30.09,10.0,NNE,4.6,-,N/A,,Clear,20,2013-01-22 21:15:00
2:55 PM,75.2,15.8,11,30.08,10.0,ESE,3.5,-,N/A,,Clear,110,2013-01-22 21:55:00
3:15 PM,75.2,15.8,11,30.08,10.0,ESE,3.5,-,N/A,,Clear,110,2013-01-22 22:15:00
3:35 PM,77.0,17.6,11,30.08,10.0,ESE,4.6,-,N/A,,Clear,110,2013-01-22 22:35:00
3:55 PM,77.0,19.4,12,30.07,10.0,SE,4.6,-,N/A,,Clear,130,2013-01-22 22:55:00
4:15 PM,77.0,19.4,12,30.07,10.0,ESE,4.6,-,N/A,,Clear,120,2013-01-22 23:15:00
4:35 PM,77.0,21.2,12,30.07,10.0,ESE,3.5,-,N/A,,Clear,110,2013-01-22 23:35:00
4:55 PM,75.2,23.0,14,30.06,10.0,ESE,4.6,-,N/A,,Clear,120,2013-01-22 23:55:00
5:15 PM,75.2,26.6,17,30.07,9.0,SE,3.5,-,N/A,,Clear,140,2013-01-23 00:15:00
5:35 PM,71.6,28.4,20,30.07,6.0,SSE,4.6,-,N/A,,Clear,150,2013-01-23 00:35:00
5:55 PM,68.0,32.0,26,30.07,3.0,SSE,3.5,-,N/A,,Clear,160,2013-01-23 00:55:00
6:15 PM,68.0,28.4,23,30.08,7.0,SSE,4.6,-,N/A,,Clear,150,2013-01-23 01:15:00
6:35 PM,68.0,26.6,21,30.08,10.0,Calm,Calm,-,N/A,,Clear,0,2013-01-23 01:35:00
6:55 PM,64.4,24.8,22,30.09,9.0,North,4.6,-,N/A,,Clear,350,2013-01-23 01:55:00
7:15 PM,60.8,23.0,23,30.08,9.0,North,6.9,-,N/A,,Clear,350,2013-01-23 02:15:00
7:35 PM,59.0,23.0,25,30.08,8.0,North,8.1,-,N/A,,Clear,10,2013-01-23 02:35:00
7:55 PM,59.0,23.0,25,30.08,10.0,NNE,6.9,-,N/A,,Clear,20,2013-01-23 02:55:00
8:15 PM,59.0,19.4,22,30.08,10.0,North,5.8,-,N/A,,Clear,350,2013-01-23 03:15:00
8:35 PM,57.2,19.4,23,30.09,7.0,NNW,5.8,-,N/A,,Clear,340,2013-01-23 03:35:00
8:55 PM,57.2,17.6,21,30.09,10.0,NNW,8.1,-,N/A,,Clear,330,2013-01-23 03:55:00
9:15 PM,55.4,17.6,23,30.09,10.0,North,10.4,-,N/A,,Clear,360,2013-01-23 04:15:00
9:35 PM,55.4,17.6,23,30.10,10.0,North,9.2,-,N/A,,Clear,360,2013-01-23 04:35:00
9:55 PM,55.4,17.6,23,30.10,10.0,NNW,6.9,-,N/A,,Clear,340,2013-01-23 04:55:00
10:15 PM,55.4,17.6,23,30.11,10.0,North,5.8,-,N/A,,Clear,360,2013-01-23 05:15:00
10:35 PM,53.6,17.6,24,30.11,10.0,North,6.9,-,N/A,,Clear,350,2013-01-23 05:35:00
10:55 PM,53.6,17.6,24,30.11,10.0,North,8.1,-,N/A,,Clear,350,2013-01-23 05:55:00
11:15 PM,51.8,19.4,28,30.12,10.0,North,4.6,-,N/A,,Clear,10,2013-01-23 06:15:00
11:35 PM,50.0,19.4,30,30.13,10.0,NW,5.8,-,N/A,,Clear,320,2013-01-23 06:35:00
11:55 PM,50.0,19.4,30,30.13,10.0,NW,6.9,-,N/A,,Clear,320,2013-01-23 06:55:00